createdAt,value
2022-11-19T00:01:24.370Z,1.39
2022-11-19T00:03:54.961Z,1.38
2022-11-19T00:06:28.194Z,1.37
2022-11-19T00:08:59.255Z,1.35
2022-11-19T00:11:44.634Z,1.31
2022-11-19T00:14:19.115Z,1.36
2022-11-19T00:16:49.632Z,1.32
2022-11-19T00:19:20.511Z,1.32
2022-11-19T00:21:51.647Z,1.30
2022-11-19T00:24:22.751Z,1.31
2022-11-19T00:26:55.954Z,1.32
2022-11-19T00:29:26.358Z,1.28
2022-11-19T00:31:56.702Z,1.27
2022-11-19T00:34:27.118Z,1.29
2022-11-19T00:36:57.630Z,1.31
2022-11-19T00:39:28.136Z,1.32
2022-11-19T00:42:01.176Z,1.32
2022-11-19T00:44:37.013Z,1.31
2022-11-19T00:47:08.313Z,1.31
2022-11-19T00:49:38.810Z,1.32
2022-11-19T00:52:09.282Z,1.28
2022-11-19T00:54:39.811Z,1.24
2022-11-19T00:57:13.057Z,1.09
2022-11-19T00:59:43.544Z,1.10
2022-11-19T01:02:14.029Z,1.17
2022-11-19T01:04:44.435Z,1.19
2022-11-19T01:07:14.832Z,1.18
2022-11-19T01:09:47.393Z,1.18
2022-11-19T01:12:20.382Z,1.19
2022-11-19T01:14:51.052Z,1.21
2022-11-19T01:17:21.480Z,1.19
2022-11-19T01:19:52.048Z,1.16
2022-11-19T01:22:22.414Z,1.14
2022-11-19T01:24:52.765Z,1.11
2022-11-19T01:27:25.756Z,1.09
2022-11-19T01:29:56.152Z,1.08
2022-11-19T01:32:26.483Z,1.05
2022-11-19T01:34:56.838Z,1.00
2022-11-19T01:37:27.485Z,0.98
2022-11-19T01:39:57.946Z,0.97
2022-11-19T01:42:46.955Z,0.98
2022-11-19T01:45:31.047Z,0.98
2022-11-19T01:48:06.538Z,0.98
2022-11-19T01:50:41.926Z,0.96
2022-11-19T01:53:12.931Z,0.95
2022-11-19T01:55:46.254Z,0.94
2022-11-19T01:58:24.505Z,0.95
2022-11-19T02:00:55.422Z,0.90
2022-11-19T02:03:26.084Z,0.89
2022-11-19T02:05:57.303Z,0.90
2022-11-19T02:08:43.083Z,0.81
2022-11-19T02:11:49.543Z,0.73
2022-11-19T02:14:44.230Z,0.71
2022-11-19T02:17:26.004Z,0.67
2022-11-19T02:20:30.112Z,0.60
2022-11-19T02:23:44.674Z,0.59
2022-11-19T02:27:03.019Z,0.48
2022-11-19T02:30:07.016Z,0.43
2022-11-19T02:32:44.959Z,0.37
2022-11-19T02:35:24.205Z,0.33
2022-11-19T02:38:03.993Z,0.33
2022-11-19T02:40:42.475Z,0.24
2022-11-19T02:43:20.756Z,0.18
2022-11-19T02:45:57.091Z,0.14
2022-11-19T02:48:34.095Z,0.13
2022-11-19T02:51:07.680Z,0.10
2022-11-19T02:53:38.461Z,0.02
2022-11-19T02:56:18.000Z,-0.03
2022-11-19T02:59:07.681Z,-0.04
2022-11-19T03:01:57.663Z,-0.10
2022-11-19T03:04:33.029Z,-0.16
2022-11-19T03:07:08.823Z,-0.22
2022-11-19T03:09:45.905Z,-0.24
2022-11-19T03:12:26.272Z,-0.31
2022-11-19T03:15:13.679Z,-0.35
2022-11-19T03:18:07.725Z,-0.36
2022-11-19T03:20:43.997Z,-0.42
2022-11-19T03:23:21.413Z,-0.44
2022-11-19T03:25:56.795Z,-0.47
2022-11-19T03:28:33.713Z,-0.49
2022-11-19T03:31:05.560Z,-0.50
2022-11-19T03:33:44.735Z,-0.55
2022-11-19T03:36:21.702Z,-0.56
2022-11-19T03:38:59.167Z,-0.62
2022-11-19T03:41:31.234Z,-0.64
2022-11-19T03:44:08.306Z,-0.65
2022-11-19T03:46:40.572Z,-0.67
2022-11-19T03:49:16.680Z,-0.63
2022-11-19T03:51:53.731Z,-0.64
2022-11-19T03:54:24.487Z,-0.65
2022-11-19T03:56:55.920Z,-0.67
2022-11-19T03:59:29.926Z,-0.72
2022-11-19T04:02:05.509Z,-0.74
2022-11-19T04:04:38.749Z,-0.76
2022-11-19T04:07:12.334Z,-0.84
2022-11-19T04:09:44.207Z,-0.92
2022-11-19T04:12:21.136Z,-0.97
2022-11-19T04:14:52.084Z,-1.00
2022-11-19T04:17:23.235Z,-1.03
2022-11-19T04:19:56.350Z,-1.04
2022-11-19T04:22:26.737Z,-1.05
2022-11-19T04:24:57.154Z,-1.04
2022-11-19T04:27:27.537Z,-1.02
2022-11-19T04:29:57.874Z,-1.01
2022-11-19T04:32:28.323Z,-1.03
2022-11-19T04:35:01.327Z,-1.09
2022-11-19T04:37:31.775Z,-1.10
2022-11-19T04:40:02.117Z,-1.10
2022-11-19T04:42:32.443Z,-1.10
2022-11-19T04:45:02.902Z,-1.10
2022-11-19T04:47:33.404Z,-1.08
2022-11-19T04:50:06.803Z,-1.09
2022-11-19T04:52:40.794Z,-1.09
2022-11-19T04:55:13.882Z,-1.12
2022-11-19T04:57:44.261Z,-1.13
2022-11-19T05:00:17.840Z,-1.11
2022-11-19T05:02:48.415Z,-1.11
2022-11-19T05:05:21.603Z,-1.12
2022-11-19T05:07:51.975Z,-1.15
2022-11-19T05:10:22.531Z,-1.15
2022-11-19T05:12:52.954Z,-1.14
2022-11-19T05:15:23.354Z,-1.14
2022-11-19T05:17:53.856Z,-1.12
2022-11-19T05:20:26.956Z,-1.16
2022-11-19T05:22:57.403Z,-1.31
2022-11-19T05:25:27.919Z,-1.27
2022-11-19T05:27:58.447Z,-1.24
2022-11-19T05:30:28.910Z,-1.20
2022-11-19T05:32:59.366Z,-1.23
2022-11-19T05:35:32.498Z,-1.24
2022-11-19T05:38:03.023Z,-1.26
2022-11-19T05:40:33.464Z,-1.29
2022-11-19T05:43:08.322Z,-1.33
2022-11-19T05:45:38.933Z,-1.32
2022-11-19T05:48:09.946Z,-1.34
2022-11-19T05:50:44.918Z,-1.36
2022-11-19T05:53:15.256Z,-1.36
2022-11-19T05:55:45.657Z,-1.38
2022-11-19T05:58:16.445Z,-1.41
2022-11-19T06:00:47.002Z,-1.38
2022-11-19T06:03:17.513Z,-1.41
2022-11-19T06:05:50.648Z,-1.38
2022-11-19T06:08:21.105Z,-1.38
2022-11-19T06:10:51.555Z,-1.40
2022-11-19T06:13:21.937Z,-1.44
2022-11-19T06:15:52.268Z,-1.47
2022-11-19T06:18:22.566Z,-1.50
2022-11-19T06:20:55.538Z,-1.52
2022-11-19T06:23:25.877Z,-1.50
2022-11-19T06:25:57.831Z,-1.44
2022-11-19T06:28:28.205Z,-1.36
2022-11-19T06:30:58.595Z,-1.37
2022-11-19T06:33:29.150Z,-1.46
2022-11-19T06:36:02.231Z,-1.46
2022-11-19T06:38:32.551Z,-1.44
2022-11-19T06:41:02.958Z,-1.44
2022-11-19T06:43:33.305Z,-1.50
2022-11-19T06:46:03.692Z,-1.51
2022-11-19T06:48:34.045Z,-1.48
2022-11-19T06:51:08.020Z,-1.49
2022-11-19T06:53:38.618Z,-1.48
2022-11-19T06:56:10.895Z,-1.42
2022-11-19T06:58:41.459Z,-1.42
2022-11-19T07:01:11.902Z,-1.44
2022-11-19T07:03:42.236Z,-1.45
2022-11-19T07:06:15.212Z,-1.45
2022-11-19T07:08:45.550Z,-1.45
2022-11-19T07:11:31.256Z,-1.46
2022-11-19T07:14:03.615Z,-1.45
2022-11-19T07:16:36.986Z,-1.41
2022-11-19T07:19:09.919Z,-1.38
2022-11-19T07:21:42.866Z,-1.35
2022-11-19T07:24:13.985Z,-1.36
2022-11-19T07:26:44.632Z,-1.36
2022-11-19T07:29:18.081Z,-1.25
2022-11-19T07:31:50.728Z,-1.17
2022-11-19T07:34:21.887Z,-1.19
2022-11-19T07:36:55.623Z,-1.19
2022-11-19T07:39:26.366Z,-1.18
2022-11-19T07:42:09.190Z,-1.18
2022-11-19T07:44:43.988Z,-1.16
2022-11-19T07:47:14.746Z,-1.09
2022-11-19T07:49:45.218Z,-1.06
2022-11-19T07:52:18.214Z,-0.91
2022-11-19T07:54:48.643Z,-0.65
2022-11-19T07:57:19.070Z,-0.56
2022-11-19T07:59:49.456Z,-0.50
2022-11-19T08:02:20.390Z,-0.34
2022-11-19T08:04:50.831Z,-0.03
2022-11-19T08:07:24.044Z,0.14
2022-11-19T08:09:54.478Z,0.21
2022-11-19T08:12:24.867Z,0.36
2022-11-19T08:14:55.313Z,0.52
2022-11-19T08:17:38.100Z,0.88
2022-11-19T08:20:10.548Z,1.79
2022-11-19T08:22:43.544Z,2.73
2022-11-19T08:25:13.992Z,3.09
2022-11-19T08:27:44.312Z,2.85
2022-11-19T08:30:16.397Z,2.69
2022-11-19T08:32:46.810Z,2.64
2022-11-19T08:35:17.348Z,2.94
2022-11-19T08:37:51.495Z,3.55
2022-11-19T08:40:22.426Z,4.31
2022-11-19T08:43:07.789Z,4.39
2022-11-19T08:45:40.810Z,4.01
2022-11-19T08:48:13.625Z,3.92
2022-11-19T08:50:45.444Z,3.90
2022-11-19T08:53:18.464Z,4.29
2022-11-19T08:55:53.985Z,4.95
2022-11-19T08:58:24.598Z,5.22
2022-11-19T09:00:55.176Z,5.07
2022-11-19T09:03:25.840Z,4.79
2022-11-19T09:06:02.348Z,4.67
2022-11-19T09:08:36.338Z,4.76
2022-11-19T09:11:10.622Z,5.27
2022-11-19T09:13:41.512Z,5.85
2022-11-19T09:16:13.358Z,6.01
2022-11-19T09:18:44.227Z,6.47
2022-11-19T09:21:15.770Z,6.84
2022-11-19T09:23:48.804Z,6.97
2022-11-19T09:26:21.652Z,6.99
2022-11-19T09:28:52.574Z,7.24
2022-11-19T09:31:23.821Z,7.58
2022-11-19T09:33:55.598Z,7.62
2022-11-19T09:36:25.986Z,7.35
2022-11-19T09:39:03.779Z,7.15
2022-11-19T09:41:51.673Z,7.02
2022-11-19T09:44:43.543Z,6.81
2022-11-19T09:47:28.891Z,6.36
2022-11-19T09:50:09.848Z,6.41
2022-11-19T09:52:47.288Z,6.59
2022-11-19T09:55:26.624Z,6.80
2022-11-19T09:57:59.623Z,6.83
2022-11-19T10:00:32.991Z,7.19
2022-11-19T10:03:15.334Z,7.43
2022-11-19T10:06:04.452Z,7.71
2022-11-19T10:08:52.528Z,7.85
2022-11-19T10:11:42.483Z,7.92
2022-11-19T10:14:25.829Z,7.85
2022-11-19T10:17:07.526Z,7.66
2022-11-19T10:19:52.277Z,7.36
2022-11-19T10:22:28.420Z,7.35
2022-11-19T10:25:06.546Z,7.62
2022-11-19T10:27:46.174Z,7.61
2022-11-19T10:30:20.636Z,7.63
2022-11-19T10:33:00.693Z,7.69
2022-11-19T10:35:34.574Z,8.13
2022-11-19T10:38:08.469Z,8.38
2022-11-19T10:40:46.770Z,8.35
2022-11-19T10:43:30.844Z,8.21
2022-11-19T10:46:04.414Z,8.39
2022-11-19T10:48:43.447Z,8.63
2022-11-19T10:51:20.825Z,9.10
2022-11-19T10:53:52.513Z,9.12
2022-11-19T10:56:26.317Z,9.26
2022-11-19T10:59:06.594Z,9.27
2022-11-19T11:01:41.240Z,10.00
2022-11-19T11:04:23.259Z,10.85
2022-11-19T11:06:57.820Z,11.69
2022-11-19T11:09:39.800Z,12.55
2022-11-19T11:12:30.416Z,13.08
2022-11-19T11:15:17.535Z,13.54
2022-11-19T11:17:50.044Z,14.12
2022-11-19T11:20:29.027Z,14.17
2022-11-19T11:23:08.775Z,14.44
2022-11-19T11:25:41.817Z,15.39
2022-11-19T11:28:18.538Z,15.65
2022-11-19T11:31:00.070Z,16.17
2022-11-19T11:33:35.544Z,16.69
2022-11-19T11:36:10.748Z,17.08
2022-11-19T11:38:47.732Z,17.20
2022-11-19T11:44:23.247Z,17.08
2022-11-19T11:46:59.529Z,16.38
2022-11-19T11:49:35.181Z,15.40
2022-11-19T11:52:20.448Z,14.04
2022-11-19T11:55:03.265Z,12.65
2022-11-19T11:57:36.901Z,11.81
2022-11-19T12:00:40.393Z,11.16
2022-11-19T12:03:18.852Z,10.88
2022-11-19T12:06:03.271Z,10.93
2022-11-19T12:08:51.074Z,11.64
2022-11-19T12:11:48.868Z,12.91
2022-11-19T12:14:24.683Z,14.55
2022-11-19T12:17:11.981Z,15.92
2022-11-19T12:20:08.447Z,17.33
2022-11-19T12:22:53.435Z,18.35
2022-11-19T12:25:36.535Z,19.32
2022-11-19T12:28:37.674Z,20.33
2022-11-19T12:31:22.808Z,20.47
2022-11-19T12:34:11.430Z,20.42
2022-11-19T12:36:56.954Z,20.44
2022-11-19T12:39:41.283Z,20.74
2022-11-19T12:42:33.060Z,20.65
2022-11-19T12:45:13.398Z,21.06
2022-11-19T12:48:03.478Z,21.36
2022-11-19T12:50:45.198Z,21.90
2022-11-19T12:53:35.913Z,22.12
2022-11-19T12:56:22.434Z,21.71
2022-11-19T12:59:03.925Z,20.79
2022-11-19T13:01:39.228Z,19.66
2022-11-19T13:04:18.807Z,17.93
2022-11-19T13:06:56.156Z,16.43
2022-11-19T13:09:48.932Z,14.90
2022-11-19T13:12:24.489Z,13.52
2022-11-19T13:14:59.927Z,12.51
2022-11-19T13:17:36.753Z,11.63
2022-11-19T13:20:15.185Z,10.74
2022-11-19T13:22:49.452Z,10.15
2022-11-19T13:25:27.667Z,9.54
2022-11-19T13:28:03.977Z,9.16
2022-11-19T13:30:37.582Z,8.83
2022-11-19T13:33:21.118Z,8.71
2022-11-19T13:36:03.535Z,8.75
2022-11-19T13:38:45.176Z,8.54
2022-11-19T13:41:25.180Z,8.56
2022-11-19T13:44:11.146Z,8.67
2022-11-19T13:46:46.317Z,8.89
2022-11-19T13:49:22.982Z,9.43
2022-11-19T13:52:01.501Z,10.00
2022-11-19T13:54:38.739Z,10.15
2022-11-19T13:57:28.005Z,9.63
2022-11-19T14:00:03.710Z,9.18
2022-11-19T14:03:13.406Z,9.00
2022-11-19T14:06:07.929Z,8.66
2022-11-19T14:09:03.681Z,8.49
2022-11-19T14:12:20.998Z,8.23
2022-11-19T14:15:46.316Z,7.75
2022-11-19T14:18:39.898Z,6.97
2022-11-19T14:22:00.634Z,6.82
2022-11-19T14:25:15.720Z,6.51
2022-11-19T14:27:49.108Z,6.04
2022-11-19T14:30:22.779Z,5.68
2022-11-19T14:32:55.135Z,5.31
2022-11-19T14:35:38.411Z,5.01
2022-11-19T14:38:37.244Z,4.84
2022-11-19T14:41:19.073Z,4.60
2022-11-19T14:44:15.341Z,4.17
2022-11-19T14:46:48.664Z,3.68
2022-11-19T14:49:35.861Z,3.67
2022-11-19T14:52:18.350Z,3.68
2022-11-19T14:54:56.460Z,3.49
2022-11-19T14:57:33.761Z,3.36
2022-11-19T15:00:10.574Z,3.23
2022-11-19T15:02:45.916Z,3.19
2022-11-19T15:05:23.459Z,3.20
2022-11-19T15:07:56.558Z,3.10
2022-11-19T15:10:49.230Z,3.09
2022-11-19T15:13:26.740Z,2.84
2022-11-19T15:16:08.914Z,2.75
2022-11-19T15:19:20.466Z,2.71
2022-11-19T15:22:12.811Z,2.61
2022-11-19T15:25:05.425Z,2.67
2022-11-19T15:28:02.472Z,2.49
2022-11-19T15:30:52.231Z,2.55
2022-11-19T15:34:05.129Z,2.56
2022-11-19T15:36:39.778Z,2.55
2022-11-19T15:39:19.866Z,2.52
2022-11-19T15:42:14.132Z,2.46
2022-11-19T15:44:52.655Z,2.36
2022-11-19T15:47:29.268Z,2.26
2022-11-19T15:50:03.568Z,2.17
2022-11-19T15:52:35.328Z,2.11
2022-11-19T15:55:20.462Z,2.07
2022-11-19T15:57:56.136Z,2.03
2022-11-19T16:00:27.430Z,2.00
2022-11-19T16:02:58.427Z,1.95
2022-11-19T16:05:34.197Z,1.91
2022-11-19T16:08:12.204Z,1.87
2022-11-19T16:10:45.343Z,1.82
2022-11-19T16:13:42.002Z,1.77
2022-11-19T16:16:31.727Z,1.69
2022-11-19T16:19:02.381Z,1.62
2022-11-19T16:21:40.937Z,1.56
2022-11-19T16:24:31.839Z,1.47
2022-11-19T16:27:04.542Z,1.46
2022-11-19T16:29:39.338Z,1.41
2022-11-19T16:32:10.464Z,1.38
2022-11-19T16:34:40.949Z,1.34
2022-11-19T16:37:16.753Z,1.31
2022-11-19T16:39:53.790Z,1.29
2022-11-19T16:42:27.167Z,1.26
2022-11-19T16:45:00.032Z,1.26
2022-11-19T16:47:33.780Z,1.21
2022-11-19T16:50:08.242Z,1.17
2022-11-19T16:52:44.700Z,1.08
2022-11-19T16:55:49.327Z,1.02
2022-11-19T16:58:25.732Z,0.99
2022-11-19T17:00:59.819Z,0.96
2022-11-19T17:03:39.783Z,0.97
2022-11-19T17:06:19.712Z,0.98
2022-11-19T17:09:00.118Z,0.94
2022-11-19T17:12:03.379Z,0.80
2022-11-19T17:14:53.015Z,0.62
2022-11-19T17:17:41.320Z,0.54
2022-11-19T17:21:02.632Z,0.51
2022-11-19T17:23:35.930Z,0.45
2022-11-19T17:26:11.283Z,0.34
2022-11-19T17:28:45.511Z,0.31
2022-11-19T17:31:22.991Z,0.20
2022-11-19T17:34:09.772Z,0.14
2022-11-19T17:36:49.659Z,0.04
2022-11-19T17:39:25.912Z,0.12
2022-11-19T17:42:12.478Z,0.30
2022-11-19T17:44:43.407Z,0.36
2022-11-19T17:47:22.898Z,0.44
2022-11-19T17:49:55.344Z,0.50
2022-11-19T17:52:28.774Z,0.51
2022-11-19T17:55:02.532Z,0.51
2022-11-19T17:57:42.215Z,0.51
2022-11-19T18:00:15.871Z,0.53
2022-11-19T18:02:48.878Z,0.50
2022-11-19T18:05:24.174Z,0.46
2022-11-19T18:07:55.093Z,0.48
2022-11-19T18:10:25.716Z,0.40
2022-11-19T18:12:58.724Z,0.34
2022-11-19T18:15:29.572Z,0.40
2022-11-19T18:18:00.085Z,0.41
2022-11-19T18:20:30.704Z,0.47
2022-11-19T18:23:01.251Z,0.47
2022-11-19T18:25:31.747Z,0.41
2022-11-19T18:28:05.008Z,0.36
2022-11-19T18:30:36.245Z,0.28
2022-11-19T18:33:06.500Z,0.23
2022-11-19T18:35:36.913Z,0.21
2022-11-19T18:38:07.679Z,0.17
2022-11-19T18:40:39.037Z,0.06
2022-11-19T18:43:24.818Z,-0.04
2022-11-19T18:45:55.170Z,-0.07
2022-11-19T18:48:25.555Z,-0.12
2022-11-19T18:50:56.113Z,-0.16
2022-11-19T18:53:26.607Z,-0.21
2022-11-19T18:55:57.858Z,-0.24
2022-11-19T18:58:32.582Z,-0.26
2022-11-19T19:01:07.269Z,-0.30
2022-11-19T19:03:38.394Z,-0.29
2022-11-19T19:06:11.247Z,-0.30
2022-11-19T19:08:42.267Z,-0.34
2022-11-19T19:11:26.098Z,-0.36
2022-11-19T19:13:59.299Z,-0.41
2022-11-19T19:16:30.592Z,-0.43
2022-11-19T19:19:00.707Z,-0.45
2022-11-19T19:21:31.431Z,-0.49
2022-11-19T19:24:05.325Z,-0.52
2022-11-19T19:26:35.723Z,-0.56
2022-11-19T19:29:09.404Z,-0.54
2022-11-19T19:31:40.234Z,-0.56
2022-11-19T19:34:10.950Z,-0.61
2022-11-19T19:36:41.434Z,-0.60
2022-11-19T19:39:12.122Z,-0.63
2022-11-19T19:41:42.597Z,-0.66
2022-11-19T19:44:15.865Z,-0.69
2022-11-19T19:46:46.197Z,-0.71
2022-11-19T19:49:16.646Z,-0.75
2022-11-19T19:51:47.114Z,-0.76
2022-11-19T19:54:17.575Z,-0.80
2022-11-19T19:56:48.089Z,-0.82
2022-11-19T19:59:21.598Z,-0.84
2022-11-19T20:01:52.943Z,-0.85
2022-11-19T20:04:23.449Z,-0.87
2022-11-19T20:06:54.039Z,-0.88
2022-11-19T20:09:25.081Z,-0.91
2022-11-19T20:11:55.395Z,-0.95
2022-11-19T20:14:28.700Z,-1.00
2022-11-19T20:16:59.109Z,-1.02
2022-11-19T20:19:29.500Z,-1.04
2022-11-19T20:22:00.002Z,-1.06
2022-11-19T20:24:30.663Z,-1.07
2022-11-19T20:27:01.107Z,-1.10
2022-11-19T20:29:34.351Z,-1.07
2022-11-19T20:32:04.926Z,-1.05
2022-11-19T20:34:35.399Z,-1.07
2022-11-19T20:37:06.052Z,-1.10
2022-11-19T20:39:36.508Z,-1.11
2022-11-19T20:42:19.596Z,-1.10
2022-11-19T20:44:52.627Z,-1.09
2022-11-19T20:47:23.008Z,-1.11
2022-11-19T20:49:53.601Z,-1.13
2022-11-19T20:52:24.343Z,-1.11
2022-11-19T20:54:55.045Z,-1.10
2022-11-19T20:57:25.473Z,-1.12
2022-11-19T20:59:58.526Z,-1.14
2022-11-19T21:02:29.509Z,-1.13
2022-11-19T21:05:00.290Z,-1.16
2022-11-19T21:07:30.821Z,-1.21
2022-11-19T21:10:07.449Z,-1.21
2022-11-19T21:12:58.436Z,-1.23
2022-11-19T21:15:32.267Z,-1.25
2022-11-19T21:18:02.716Z,-1.26
2022-11-19T21:20:33.395Z,-1.30
2022-11-19T21:23:04.101Z,-1.29
2022-11-19T21:25:34.985Z,-1.31
2022-11-19T21:28:05.696Z,-1.33
2022-11-19T21:30:40.372Z,-1.36
2022-11-19T21:33:10.809Z,-1.36
2022-11-19T21:35:44.239Z,-1.36
2022-11-19T21:38:14.605Z,-1.36
2022-11-19T21:40:46.754Z,-1.38
2022-11-19T21:43:17.136Z,-1.40
2022-11-19T21:45:50.710Z,-1.45
2022-11-19T21:48:21.189Z,-1.50
2022-11-19T21:50:52.438Z,-1.55
2022-11-19T21:53:23.496Z,-1.53
2022-11-19T21:55:54.086Z,-1.54
2022-11-19T21:58:24.510Z,-1.57
2022-11-19T22:01:01.052Z,-1.55
2022-11-19T22:03:33.358Z,-1.53
2022-11-19T22:06:06.122Z,-1.54
2022-11-19T22:08:39.499Z,-1.57
2022-11-19T22:11:23.128Z,-1.53
2022-11-19T22:13:53.656Z,-1.54
2022-11-19T22:16:26.934Z,-1.56
2022-11-19T22:18:57.306Z,-1.52
2022-11-19T22:21:29.610Z,-1.51
2022-11-19T22:24:00.732Z,-1.52
2022-11-19T22:26:31.346Z,-1.53
2022-11-19T22:29:01.882Z,-1.57
2022-11-19T22:31:35.288Z,-1.60
2022-11-19T22:34:05.891Z,-1.63
2022-11-19T22:36:36.450Z,-1.62
2022-11-19T22:39:08.010Z,-1.65
2022-11-19T22:41:38.601Z,-1.68
2022-11-19T22:44:09.126Z,-1.72
2022-11-19T22:46:42.274Z,-1.72
2022-11-19T22:49:12.684Z,-1.78
2022-11-19T22:51:43.117Z,-1.78
2022-11-19T22:54:15.463Z,-1.82
2022-11-19T22:56:45.927Z,-1.81
2022-11-19T22:59:16.345Z,-1.86
2022-11-19T23:01:49.841Z,-1.88
2022-11-19T23:04:20.230Z,-1.88
2022-11-19T23:06:50.599Z,-1.89
2022-11-19T23:09:21.191Z,-1.91
2022-11-19T23:12:04.107Z,-1.94
2022-11-19T23:14:34.733Z,-1.99
2022-11-19T23:17:08.061Z,-2.00
2022-11-19T23:19:40.561Z,-2.04
2022-11-19T23:22:10.939Z,-2.01
2022-11-19T23:24:41.343Z,-2.03
2022-11-19T23:27:22.478Z,-2.02
2022-11-19T23:29:52.970Z,-2.07
2022-11-19T23:32:26.422Z,-2.11
2022-11-19T23:34:57.028Z,-2.12
2022-11-19T23:37:27.512Z,-2.10
2022-11-19T23:39:58.021Z,-2.09
2022-11-19T23:42:28.487Z,-2.13
2022-11-19T23:44:58.947Z,-2.17
2022-11-19T23:47:32.040Z,-2.15
2022-11-19T23:50:02.477Z,-2.18
2022-11-19T23:52:33.631Z,-2.18
2022-11-19T23:55:04.139Z,-2.19
2022-11-19T23:57:34.674Z,-2.21
